Terminal Aerodrome Forecast
Issued by NWS

Home | Current Version | Previous Version | Text Only | Print | Product List | Glossary On
Versions: 1 2 3 4 5 6 7 8 9 10 11 12 13 14 15 16 17 18 19 20 21 22 23 24 25 26 27 28 29 30
000
FTUS46 KSTO 241231 AAA
TAFRDD
TAF AMD
KRDD 241231Z 2413/2512 00000KT 2SM BR FEW050 SCT250
      TEMPO 2413/2415 1/2SM FG VV001
     FM241600 VRB03KT P6SM BKN250
     FM250600 VRB04KT P6SM OVC100=

USA.gov is the U.S. government's official web portal to all federal, state and local government web resources and services.